Aeroporto :
LOGIN :

Iscrizione | Disclaimer

   EN    FR    IT 

 










Sommario :    VFR   VFR Marginale   IFR   IFR Intensivo   IFR Molto Intensivo
Visibilità : 
Base nubi : 
>= 8 km
>= 3000ft
5 / 8 km
1000 / 3000 ft
1500m / 5 km
500 / 1000 ft
800 / 1500m
200 / 500 ft
< 800m
< 200 ft
Simboli :   Temporali  Nebbia  Neve Forte  Precipitazioni Forti  Vento > 20 kt
SIGMETs :   Varie  Temporali  Ghiacco  Turbolenza  Onda orograficha  Ceneri Vulcaniche






- Altitudine del aeroporto : 257 ft
- Codice IATA : MAN


EGCC - Manchester

ULTIMO METAR :
  • 162350Z AUTO VRB01KT 7000 OVC026 06/06 Q1008

METARs OBSOLETI :
  • 162320Z AUTO 21002KT 8000 OVC025 06/06 Q1008
  • 162250Z AUTO 19002KT 6000 OVC022 06/06 Q1007 NOSIG
  • 162220Z AUTO VRB01KT 9999 OVC024 06/06 Q1007 NOSIG
  • 162150Z AUTO VRB01KT 9999 FEW025 BKN030 07/06 Q1007 NOSIG
  • 162120Z AUTO VRB01KT 9999 SCT026 BKN030 07/06 Q1007
  • 162050Z AUTO VRB02KT 9999 FEW029 BKN035 07/06 Q1007

TAF TAF EGCC
Valido dal 17 a 00 ore il 18 a 06 ore UTC


162256Z 1700/1806 19004KT 9999 BKN020
TEMPO 1700/1718 6000 -RA FEW003 BKN010
PROB30
TEMPO 1700/1712 2000 RADZ BR BKN003
BECMG 1710/1713 35010KT
ATIS : +44 161 499 2324



MetMap, La meteo Aeronautica in un colpo d'occhio ! - Copyright ORBIFLY Dicembre 2007 - Disclaimer

ORBIFLY MET'MAP TEAM :

Programmazione e sviluppo : Alexandra Zaïnal
Concezione e sviluppo : Baudouin d'Aumeries
Co-Programmazione e sviluppo : Marc-Olivier Méhu
Supporto tecnico e logistico : Manuel Goepfert
Aiuto per la traduzione : Arnaldo La Scala

Contatto : metmap@orbifly.com




FONTI E CREDITI :

   NOAA